sensor_id;sensor_type;location;lat;lon;timestamp;temperature;humidity
9527;DHT22;4802;51.494;6.770;2023-06-26T00:01:09;25.40;99.90
9527;DHT22;4802;51.494;6.770;2023-06-26T00:03:45;25.40;99.90
9527;DHT22;4802;51.494;6.770;2023-06-26T00:06:14;25.30;99.90
9527;DHT22;4802;51.494;6.770;2023-06-26T00:08:43;25.20;99.90
9527;DHT22;4802;51.494;6.770;2023-06-26T00:11:13;25.20;99.90
9527;DHT22;4802;51.494;6.770;2023-06-26T00:13:43;25.20;99.90
9527;DHT22;4802;51.494;6.770;2023-06-26T00:16:13;25.10;99.90
9527;DHT22;4802;51.494;6.770;2023-06-26T00:18:42;25.10;99.90
9527;DHT22;4802;51.494;6.770;2023-06-26T00:21:11;25.10;99.90
9527;DHT22;4802;51.494;6.770;2023-06-26T00:23:43;25.10;99.90
9527;DHT22;4802;51.494;6.770;2023-06-26T00:26:12;25.00;99.90
9527;DHT22;4802;51.494;6.770;2023-06-26T00:28:40;25.00;99.90
9527;DHT22;4802;51.494;6.770;2023-06-26T00:31:09;25.00;99.90
9527;DHT22;4802;51.494;6.770;2023-06-26T00:33:41;24.60;99.90
9527;DHT22;4802;51.494;6.770;2023-06-26T00:36:12;24.90;99.90
9527;DHT22;4802;51.494;6.770;2023-06-26T00:38:42;24.80;99.90
9527;DHT22;4802;51.494;6.770;2023-06-26T00:41:11;24.80;99.90
9527;DHT22;4802;51.494;6.770;2023-06-26T00:43:41;24.80;99.90
9527;DHT22;4802;51.494;6.770;2023-06-26T00:46:12;24.80;99.90
9527;DHT22;4802;51.494;6.770;2023-06-26T00:48:44;24.80;99.90
9527;DHT22;4802;51.494;6.770;2023-06-26T00:51:17;24.80;99.90
9527;DHT22;4802;51.494;6.770;2023-06-26T00:53:46;24.70;99.90
9527;DHT22;4802;51.494;6.770;2023-06-26T00:56:28;24.70;99.90
9527;DHT22;4802;51.494;6.770;2023-06-26T00:58:59;24.60;99.90
9527;DHT22;4802;51.494;6.770;2023-06-26T01:01:28;24.60;99.90
9527;DHT22;4802;51.494;6.770;2023-06-26T01:03:58;24.60;99.90
9527;DHT22;4802;51.494;6.770;2023-06-26T01:06:30;24.50;99.90
9527;DHT22;4802;51.494;6.770;2023-06-26T01:09:02;24.60;99.90
9527;DHT22;4802;51.494;6.770;2023-06-26T01:11:31;24.50;99.90
9527;DHT22;4802;51.494;6.770;2023-06-26T01:14:01;24.40;99.90
9527;DHT22;4802;51.494;6.770;2023-06-26T01:16:30;24.40;99.90
9527;DHT22;4802;51.494;6.770;2023-06-26T01:19:00;24.40;99.90
9527;DHT22;4802;51.494;6.770;2023-06-26T01:21:29;24.30;99.90
9527;DHT22;4802;51.494;6.770;2023-06-26T01:24:07;24.20;99.90
9527;DHT22;4802;51.494;6.770;2023-06-26T01:26:40;24.20;99.90
9527;DHT22;4802;51.494;6.770;2023-06-26T01:29:10;24.20;99.90
9527;DHT22;4802;51.494;6.770;2023-06-26T01:31:40;24.20;99.90
9527;DHT22;4802;51.494;6.770;2023-06-26T01:34:09;24.20;99.90
9527;DHT22;4802;51.494;6.770;2023-06-26T01:36:41;24.20;99.90
9527;DHT22;4802;51.494;6.770;2023-06-26T01:39:14;24.20;99.90
9527;DHT22;4802;51.494;6.770;2023-06-26T01:41:45;24.10;99.90
9527;DHT22;4802;51.494;6.770;2023-06-26T01:44:24;24.10;99.90
9527;DHT22;4802;51.494;6.770;2023-06-26T01:46:59;24.00;99.90
9527;DHT22;4802;51.494;6.770;2023-06-26T01:49:37;24.00;99.90
9527;DHT22;4802;51.494;6.770;2023-06-26T01:52:19;24.00;99.90
9527;DHT22;4802;51.494;6.770;2023-06-26T01:54:56;23.90;99.90
9527;DHT22;4802;51.494;6.770;2023-06-26T01:57:30;23.80;99.90
9527;DHT22;4802;51.494;6.770;2023-06-26T02:00:00;24.10;99.90
9527;DHT22;4802;51.494;6.770;2023-06-26T02:02:29;23.90;99.90
9527;DHT22;4802;51.494;6.770;2023-06-26T02:05:02;23.80;99.90
9527;DHT22;4802;51.494;6.770;2023-06-26T02:07:31;23.80;99.90
9527;DHT22;4802;51.494;6.770;2023-06-26T02:09:59;23.80;99.90
9527;DHT22;4802;51.494;6.770;2023-06-26T02:12:29;23.80;99.90
9527;DHT22;4802;51.494;6.770;2023-06-26T02:14:58;23.70;99.90
9527;DHT22;4802;51.494;6.770;2023-06-26T02:17:26;23.70;99.90
9527;DHT22;4802;51.494;6.770;2023-06-26T02:19:55;23.70;99.90
9527;DHT22;4802;51.494;6.770;2023-06-26T02:22:24;23.60;99.90
9527;DHT22;4802;51.494;6.770;2023-06-26T02:24:55;23.50;99.90
9527;DHT22;4802;51.494;6.770;2023-06-26T02:27:24;23.50;99.90
9527;DHT22;4802;51.494;6.770;2023-06-26T02:29:54;23.50;99.90
9527;DHT22;4802;51.494;6.770;2023-06-26T02:32:23;23.50;99.90
9527;DHT22;4802;51.494;6.770;2023-06-26T02:34:51;23.50;99.90
9527;DHT22;4802;51.494;6.770;2023-06-26T02:37:20;23.50;99.90
9527;DHT22;4802;51.494;6.770;2023-06-26T02:39:49;23.50;99.90
9527;DHT22;4802;51.494;6.770;2023-06-26T02:42:18;23.40;99.90
9527;DHT22;4802;51.494;6.770;2023-06-26T02:44:46;23.50;99.90
9527;DHT22;4802;51.494;6.770;2023-06-26T02:47:16;23.50;99.90
9527;DHT22;4802;51.494;6.770;2023-06-26T02:49:45;23.50;99.90
9527;DHT22;4802;51.494;6.770;2023-06-26T02:52:14;23.30;99.90
9527;DHT22;4802;51.494;6.770;2023-06-26T02:54:42;23.40;99.90
9527;DHT22;4802;51.494;6.770;2023-06-26T02:57:11;23.40;99.90
9527;DHT22;4802;51.494;6.770;2023-06-26T02:59:39;23.40;99.90
9527;DHT22;4802;51.494;6.770;2023-06-26T03:02:08;23.50;99.90
9527;DHT22;4802;51.494;6.770;2023-06-26T03:04:38;23.50;99.90
9527;DHT22;4802;51.494;6.770;2023-06-26T03:07:07;23.50;99.90
9527;DHT22;4802;51.494;6.770;2023-06-26T03:09:35;23.50;99.90
9527;DHT22;4802;51.494;6.770;2023-06-26T03:12:05;23.50;99.90
9527;DHT22;4802;51.494;6.770;2023-06-26T03:14:33;23.50;99.90
9527;DHT22;4802;51.494;6.770;2023-06-26T03:17:02;23.50;99.90
9527;DHT22;4802;51.494;6.770;2023-06-26T03:19:33;23.70;99.90
9527;DHT22;4802;51.494;6.770;2023-06-26T03:22:03;23.40;99.90
9527;DHT22;4802;51.494;6.770;2023-06-26T03:24:32;23.40;99.90
9527;DHT22;4802;51.494;6.770;2023-06-26T03:27:01;23.40;99.90
9527;DHT22;4802;51.494;6.770;2023-06-26T03:29:30;23.40;99.90
9527;DHT22;4802;51.494;6.770;2023-06-26T03:31:58;23.40;99.90
9527;DHT22;4802;51.494;6.770;2023-06-26T03:34:27;23.30;99.90
9527;DHT22;4802;51.494;6.770;2023-06-26T03:36:58;23.40;99.90
9527;DHT22;4802;51.494;6.770;2023-06-26T03:39:29;23.40;99.90
9527;DHT22;4802;51.494;6.770;2023-06-26T03:41:57;23.30;99.90
9527;DHT22;4802;51.494;6.770;2023-06-26T03:44:28;23.30;99.90
9527;DHT22;4802;51.494;6.770;2023-06-26T03:46:56;23.30;99.90
9527;DHT22;4802;51.494;6.770;2023-06-26T03:49:25;23.30;99.90
9527;DHT22;4802;51.494;6.770;2023-06-26T03:51:54;23.40;99.90
9527;DHT22;4802;51.494;6.770;2023-06-26T03:54:22;23.30;99.90
9527;DHT22;4802;51.494;6.770;2023-06-26T03:56:52;23.40;99.90
9527;DHT22;4802;51.494;6.770;2023-06-26T03:59:22;23.40;99.90
9527;DHT22;4802;51.494;6.770;2023-06-26T04:01:52;23.50;99.90
9527;DHT22;4802;51.494;6.770;2023-06-26T04:04:20;23.40;99.90
9527;DHT22;4802;51.494;6.770;2023-06-26T04:06:49;23.40;99.90
9527;DHT22;4802;51.494;6.770;2023-06-26T04:09:18;23.60;99.90
9527;DHT22;4802;51.494;6.770;2023-06-26T04:11:47;23.40;99.90
9527;DHT22;4802;51.494;6.770;2023-06-26T04:14:17;23.40;99.90
9527;DHT22;4802;51.494;6.770;2023-06-26T04:16:45;23.40;99.90
9527;DHT22;4802;51.494;6.770;2023-06-26T04:19:14;24.00;99.90
9527;DHT22;4802;51.494;6.770;2023-06-26T04:21:43;24.40;99.90
9527;DHT22;4802;51.494;6.770;2023-06-26T04:24:12;24.70;99.90
9527;DHT22;4802;51.494;6.770;2023-06-26T04:26:41;24.80;99.90
9527;DHT22;4802;51.494;6.770;2023-06-26T04:29:12;25.60;99.90
9527;DHT22;4802;51.494;6.770;2023-06-26T04:31:44;26.20;99.90
9527;DHT22;4802;51.494;6.770;2023-06-26T04:34:18;26.70;99.90
9527;DHT22;4802;51.494;6.770;2023-06-26T04:36:47;26.90;99.90
9527;DHT22;4802;51.494;6.770;2023-06-26T04:39:18;26.80;99.90
9527;DHT22;4802;51.494;6.770;2023-06-26T04:41:46;26.90;99.90
9527;DHT22;4802;51.494;6.770;2023-06-26T04:44:16;27.30;99.90
9527;DHT22;4802;51.494;6.770;2023-06-26T04:46:48;27.50;99.90
9527;DHT22;4802;51.494;6.770;2023-06-26T04:49:19;27.50;99.90
9527;DHT22;4802;51.494;6.770;2023-06-26T04:51:52;27.40;99.90
9527;DHT22;4802;51.494;6.770;2023-06-26T04:54:20;27.40;99.90
9527;DHT22;4802;51.494;6.770;2023-06-26T04:56:50;27.50;99.90
9527;DHT22;4802;51.494;6.770;2023-06-26T04:59:21;27.70;99.90
9527;DHT22;4802;51.494;6.770;2023-06-26T05:01:56;27.80;99.90
9527;DHT22;4802;51.494;6.770;2023-06-26T05:04:27;27.80;99.90
9527;DHT22;4802;51.494;6.770;2023-06-26T05:06:57;27.50;99.90
9527;DHT22;4802;51.494;6.770;2023-06-26T05:09:33;27.20;99.90
9527;DHT22;4802;51.494;6.770;2023-06-26T05:12:09;27.40;99.90
9527;DHT22;4802;51.494;6.770;2023-06-26T05:14:43;27.60;99.90
9527;DHT22;4802;51.494;6.770;2023-06-26T05:17:14;28.00;99.90
9527;DHT22;4802;51.494;6.770;2023-06-26T05:19:43;28.20;99.90
9527;DHT22;4802;51.494;6.770;2023-06-26T05:22:22;28.40;99.90
9527;DHT22;4802;51.494;6.770;2023-06-26T05:24:54;28.00;99.90
9527;DHT22;4802;51.494;6.770;2023-06-26T05:27:28;27.10;99.90
9527;DHT22;4802;51.494;6.770;2023-06-26T05:30:01;26.60;99.90
9527;DHT22;4802;51.494;6.770;2023-06-26T05:33:02;26.30;99.90
9527;DHT22;4802;51.494;6.770;2023-06-26T05:36:13;27.30;99.90
9527;DHT22;4802;51.494;6.770;2023-06-26T05:39:11;28.10;99.90
9527;DHT22;4802;51.494;6.770;2023-06-26T05:42:28;28.50;99.90
9527;DHT22;4802;51.494;6.770;2023-06-26T05:45:25;28.80;99.90
9527;DHT22;4802;51.494;6.770;2023-06-26T05:47:54;29.40;99.90
9527;DHT22;4802;51.494;6.770;2023-06-26T05:50:34;30.00;99.90
9527;DHT22;4802;51.494;6.770;2023-06-26T05:53:06;29.80;99.90
9527;DHT22;4802;51.494;6.770;2023-06-26T05:55:43;29.40;99.90
9527;DHT22;4802;51.494;6.770;2023-06-26T05:58:38;28.60;99.90
9527;DHT22;4802;51.494;6.770;2023-06-26T06:01:22;27.80;99.90
9527;DHT22;4802;51.494;6.770;2023-06-26T06:03:52;27.10;99.90
9527;DHT22;4802;51.494;6.770;2023-06-26T06:06:31;26.90;99.90
9527;DHT22;4802;51.494;6.770;2023-06-26T06:09:07;26.60;99.90
9527;DHT22;4802;51.494;6.770;2023-06-26T06:11:37;27.40;99.90
9527;DHT22;4802;51.494;6.770;2023-06-26T06:14:14;27.20;99.90
9527;DHT22;4802;51.494;6.770;2023-06-26T06:16:45;27.00;99.90
9527;DHT22;4802;51.494;6.770;2023-06-26T06:19:22;26.90;99.90
9527;DHT22;4802;51.494;6.770;2023-06-26T06:21:55;26.40;99.90
9527;DHT22;4802;51.494;6.770;2023-06-26T06:24:25;27.20;99.90
9527;DHT22;4802;51.494;6.770;2023-06-26T06:26:54;28.00;99.90
9527;DHT22;4802;51.494;6.770;2023-06-26T06:29:23;29.20;99.90
9527;DHT22;4802;51.494;6.770;2023-06-26T06:31:53;30.10;99.90
9527;DHT22;4802;51.494;6.770;2023-06-26T06:34:25;30.60;99.90
9527;DHT22;4802;51.494;6.770;2023-06-26T06:36:57;30.90;99.90
9527;DHT22;4802;51.494;6.770;2023-06-26T06:39:27;31.30;99.90
9527;DHT22;4802;51.494;6.770;2023-06-26T06:41:57;32.00;99.90
9527;DHT22;4802;51.494;6.770;2023-06-26T06:44:30;32.10;99.90
9527;DHT22;4802;51.494;6.770;2023-06-26T06:46:59;31.60;99.90
9527;DHT22;4802;51.494;6.770;2023-06-26T06:49:28;31.20;99.90
9527;DHT22;4802;51.494;6.770;2023-06-26T06:51:59;30.10;99.90
9527;DHT22;4802;51.494;6.770;2023-06-26T06:54:31;29.50;99.90
9527;DHT22;4802;51.494;6.770;2023-06-26T06:57:02;29.60;99.90
9527;DHT22;4802;51.494;6.770;2023-06-26T06:59:32;29.30;99.90
9527;DHT22;4802;51.494;6.770;2023-06-26T07:02:03;29.00;99.90
9527;DHT22;4802;51.494;6.770;2023-06-26T07:04:33;28.50;99.90
9527;DHT22;4802;51.494;6.770;2023-06-26T07:07:04;27.90;99.90
9527;DHT22;4802;51.494;6.770;2023-06-26T07:09:33;27.60;99.90
9527;DHT22;4802;51.494;6.770;2023-06-26T07:12:02;27.40;99.90
9527;DHT22;4802;51.494;6.770;2023-06-26T07:14:31;28.00;99.90
9527;DHT22;4802;51.494;6.770;2023-06-26T07:17:00;28.70;99.90
9527;DHT22;4802;51.494;6.770;2023-06-26T07:19:32;29.90;99.90
9527;DHT22;4802;51.494;6.770;2023-06-26T07:22:01;30.10;99.90
9527;DHT22;4802;51.494;6.770;2023-06-26T07:24:35;30.30;99.90
9527;DHT22;4802;51.494;6.770;2023-06-26T07:27:05;31.10;99.90
9527;DHT22;4802;51.494;6.770;2023-06-26T07:29:35;31.90;99.90
9527;DHT22;4802;51.494;6.770;2023-06-26T07:32:05;32.10;99.90
9527;DHT22;4802;51.494;6.770;2023-06-26T07:34:34;32.00;99.90
9527;DHT22;4802;51.494;6.770;2023-06-26T07:37:03;32.20;99.90
9527;DHT22;4802;51.494;6.770;2023-06-26T07:39:32;31.50;99.90
9527;DHT22;4802;51.494;6.770;2023-06-26T07:42:03;31.00;99.90
9527;DHT22;4802;51.494;6.770;2023-06-26T07:44:32;30.70;99.90
9527;DHT22;4802;51.494;6.770;2023-06-26T07:47:01;31.10;99.90
9527;DHT22;4802;51.494;6.770;2023-06-26T07:49:31;31.10;99.90
9527;DHT22;4802;51.494;6.770;2023-06-26T07:52:00;31.00;99.90
9527;DHT22;4802;51.494;6.770;2023-06-26T07:54:29;30.50;99.90
9527;DHT22;4802;51.494;6.770;2023-06-26T07:56:59;30.00;99.90
9527;DHT22;4802;51.494;6.770;2023-06-26T07:59:30;29.60;99.90
9527;DHT22;4802;51.494;6.770;2023-06-26T08:01:59;29.80;99.90
9527;DHT22;4802;51.494;6.770;2023-06-26T08:04:29;29.70;99.90
9527;DHT22;4802;51.494;6.770;2023-06-26T08:07:00;29.20;99.90
9527;DHT22;4802;51.494;6.770;2023-06-26T08:09:34;29.00;99.90
9527;DHT22;4802;51.494;6.770;2023-06-26T08:12:06;28.50;99.90
9527;DHT22;4802;51.494;6.770;2023-06-26T08:14:39;28.30;99.90
9527;DHT22;4802;51.494;6.770;2023-06-26T08:17:09;28.30;99.90
9527;DHT22;4802;51.494;6.770;2023-06-26T08:19:41;28.00;99.90
9527;DHT22;4802;51.494;6.770;2023-06-26T08:22:11;28.00;99.90
9527;DHT22;4802;51.494;6.770;2023-06-26T08:24:43;28.00;99.90
9527;DHT22;4802;51.494;6.770;2023-06-26T08:27:25;28.50;99.90
9527;DHT22;4802;51.494;6.770;2023-06-26T08:30:04;28.40;99.90
9527;DHT22;4802;51.494;6.770;2023-06-26T08:32:40;28.90;99.90
9527;DHT22;4802;51.494;6.770;2023-06-26T08:35:10;29.10;99.90
9527;DHT22;4802;51.494;6.770;2023-06-26T08:37:40;29.50;99.90
9527;DHT22;4802;51.494;6.770;2023-06-26T08:40:12;29.70;99.90
9527;DHT22;4802;51.494;6.770;2023-06-26T08:42:47;29.30;99.90
9527;DHT22;4802;51.494;6.770;2023-06-26T08:45:23;29.20;99.90
9527;DHT22;4802;51.494;6.770;2023-06-26T08:48:00;28.70;99.90
9527;DHT22;4802;51.494;6.770;2023-06-26T08:50:34;28.10;99.90
9527;DHT22;4802;51.494;6.770;2023-06-26T08:53:11;28.80;99.90
9527;DHT22;4802;51.494;6.770;2023-06-26T08:55:42;29.40;99.90
9527;DHT22;4802;51.494;6.770;2023-06-26T08:58:11;29.90;99.90
9527;DHT22;4802;51.494;6.770;2023-06-26T09:00:44;29.80;99.90
9527;DHT22;4802;51.494;6.770;2023-06-26T09:03:14;29.40;99.90
9527;DHT22;4802;51.494;6.770;2023-06-26T09:05:47;28.80;99.90
9527;DHT22;4802;51.494;6.770;2023-06-26T09:08:16;29.90;99.90
9527;DHT22;4802;51.494;6.770;2023-06-26T09:10:45;30.70;99.90
9527;DHT22;4802;51.494;6.770;2023-06-26T09:13:22;31.50;99.90
9527;DHT22;4802;51.494;6.770;2023-06-26T09:15:58;32.90;99.90
9527;DHT22;4802;51.494;6.770;2023-06-26T09:18:28;32.90;99.90
9527;DHT22;4802;51.494;6.770;2023-06-26T09:20:58;31.80;99.90
9527;DHT22;4802;51.494;6.770;2023-06-26T09:23:44;30.90;99.90
9527;DHT22;4802;51.494;6.770;2023-06-26T09:26:22;31.60;99.90
9527;DHT22;4802;51.494;6.770;2023-06-26T09:29:02;32.00;99.90
9527;DHT22;4802;51.494;6.770;2023-06-26T09:34:58;33.00;99.90
9527;DHT22;4802;51.494;6.770;2023-06-26T09:37:44;32.60;99.90
9527;DHT22;4802;51.494;6.770;2023-06-26T09:40:28;33.40;99.90
9527;DHT22;4802;51.494;6.770;2023-06-26T09:43:03;33.70;99.90
9527;DHT22;4802;51.494;6.770;2023-06-26T09:45:46;32.60;99.90
9527;DHT22;4802;51.494;6.770;2023-06-26T09:48:25;31.60;99.90
9527;DHT22;4802;51.494;6.770;2023-06-26T09:51:00;30.90;99.90
9527;DHT22;4802;51.494;6.770;2023-06-26T09:53:42;30.10;99.90
9527;DHT22;4802;51.494;6.770;2023-06-26T09:56:16;30.90;99.90
9527;DHT22;4802;51.494;6.770;2023-06-26T09:58:56;31.10;99.90
9527;DHT22;4802;51.494;6.770;2023-06-26T10:01:28;30.90;99.90
9527;DHT22;4802;51.494;6.770;2023-06-26T10:04:03;30.40;99.90
9527;DHT22;4802;51.494;6.770;2023-06-26T10:06:47;30.40;99.90
9527;DHT22;4802;51.494;6.770;2023-06-26T10:09:21;30.90;99.90
9527;DHT22;4802;51.494;6.770;2023-06-26T10:12:28;31.50;99.90
9527;DHT22;4802;51.494;6.770;2023-06-26T10:15:14;31.20;99.90
9527;DHT22;4802;51.494;6.770;2023-06-26T10:17:46;31.40;99.90
9527;DHT22;4802;51.494;6.770;2023-06-26T10:20:20;31.80;99.90
9527;DHT22;4802;51.494;6.770;2023-06-26T10:26:24;31.40;99.90
9527;DHT22;4802;51.494;6.770;2023-06-26T10:29:14;31.60;99.90
9527;DHT22;4802;51.494;6.770;2023-06-26T10:31:52;30.70;99.90
9527;DHT22;4802;51.494;6.770;2023-06-26T10:34:37;30.00;99.90
9527;DHT22;4802;51.494;6.770;2023-06-26T10:37:06;29.30;99.90
9527;DHT22;4802;51.494;6.770;2023-06-26T10:39:47;29.10;99.90
9527;DHT22;4802;51.494;6.770;2023-06-26T10:42:37;28.60;99.90
9527;DHT22;4802;51.494;6.770;2023-06-26T10:45:28;28.70;99.90
9527;DHT22;4802;51.494;6.770;2023-06-26T10:47:58;29.30;99.90
9527;DHT22;4802;51.494;6.770;2023-06-26T10:50:30;29.50;99.90
9527;DHT22;4802;51.494;6.770;2023-06-26T10:53:10;29.80;99.90
9527;DHT22;4802;51.494;6.770;2023-06-26T10:55:47;30.20;99.90
9527;DHT22;4802;51.494;6.770;2023-06-26T10:58:30;30.40;99.90
9527;DHT22;4802;51.494;6.770;2023-06-26T11:01:17;30.60;99.90
9527;DHT22;4802;51.494;6.770;2023-06-26T11:03:49;30.30;99.90
9527;DHT22;4802;51.494;6.770;2023-06-26T11:06:47;30.60;99.90
9527;DHT22;4802;51.494;6.770;2023-06-26T11:09:30;30.70;99.90
9527;DHT22;4802;51.494;6.770;2023-06-26T11:12:00;30.20;99.90
9527;DHT22;4802;51.494;6.770;2023-06-26T11:14:39;29.80;99.90
9527;DHT22;4802;51.494;6.770;2023-06-26T11:17:12;29.90;99.90
9527;DHT22;4802;51.494;6.770;2023-06-26T11:19:44;29.90;99.90
9527;DHT22;4802;51.494;6.770;2023-06-26T11:22:15;30.20;99.90
9527;DHT22;4802;51.494;6.770;2023-06-26T11:24:48;29.80;99.90
9527;DHT22;4802;51.494;6.770;2023-06-26T11:27:18;29.90;99.90
9527;DHT22;4802;51.494;6.770;2023-06-26T11:29:55;30.10;99.90
9527;DHT22;4802;51.494;6.770;2023-06-26T11:32:46;30.40;99.90
9527;DHT22;4802;51.494;6.770;2023-06-26T11:35:34;30.60;99.90
9527;DHT22;4802;51.494;6.770;2023-06-26T11:38:18;30.30;99.90
9527;DHT22;4802;51.494;6.770;2023-06-26T11:41:30;30.00;99.90
9527;DHT22;4802;51.494;6.770;2023-06-26T11:44:12;29.70;99.90
9527;DHT22;4802;51.494;6.770;2023-06-26T11:46:54;30.20;99.90
9527;DHT22;4802;51.494;6.770;2023-06-26T11:49:30;29.40;99.90
9527;DHT22;4802;51.494;6.770;2023-06-26T11:52:28;29.30;99.90
9527;DHT22;4802;51.494;6.770;2023-06-26T11:55:01;29.20;99.90
9527;DHT22;4802;51.494;6.770;2023-06-26T11:57:41;29.60;99.90
9527;DHT22;4802;51.494;6.770;2023-06-26T12:00:15;29.50;99.90
9527;DHT22;4802;51.494;6.770;2023-06-26T12:02:49;29.50;99.90
9527;DHT22;4802;51.494;6.770;2023-06-26T12:05:20;29.60;99.90
9527;DHT22;4802;51.494;6.770;2023-06-26T12:07:51;29.70;99.90
9527;DHT22;4802;51.494;6.770;2023-06-26T12:10:20;30.00;99.90
9527;DHT22;4802;51.494;6.770;2023-06-26T12:13:08;30.20;99.90
9527;DHT22;4802;51.494;6.770;2023-06-26T12:15:40;30.30;99.90
9527;DHT22;4802;51.494;6.770;2023-06-26T12:18:12;29.70;99.90
9527;DHT22;4802;51.494;6.770;2023-06-26T12:20:41;29.30;99.90
9527;DHT22;4802;51.494;6.770;2023-06-26T12:23:32;29.40;99.90
9527;DHT22;4802;51.494;6.770;2023-06-26T12:26:22;29.40;99.90
9527;DHT22;4802;51.494;6.770;2023-06-26T12:29:02;29.50;99.90
9527;DHT22;4802;51.494;6.770;2023-06-26T12:31:48;29.40;99.90
9527;DHT22;4802;51.494;6.770;2023-06-26T12:34:38;29.20;99.90
9527;DHT22;4802;51.494;6.770;2023-06-26T12:37:17;29.10;99.90
9527;DHT22;4802;51.494;6.770;2023-06-26T12:39:52;29.10;99.90
9527;DHT22;4802;51.494;6.770;2023-06-26T12:42:45;29.10;99.90
9527;DHT22;4802;51.494;6.770;2023-06-26T12:45:43;29.40;99.90
9527;DHT22;4802;51.494;6.770;2023-06-26T12:48:54;29.30;99.90
9527;DHT22;4802;51.494;6.770;2023-06-26T12:55:16;28.80;99.90
9527;DHT22;4802;51.494;6.770;2023-06-26T12:57:51;28.80;99.90
9527;DHT22;4802;51.494;6.770;2023-06-26T13:00:35;28.60;99.90
9527;DHT22;4802;51.494;6.770;2023-06-26T13:03:14;28.30;99.90
9527;DHT22;4802;51.494;6.770;2023-06-26T13:05:53;28.10;99.90
9527;DHT22;4802;51.494;6.770;2023-06-26T13:08:29;28.10;99.90
9527;DHT22;4802;51.494;6.770;2023-06-26T13:11:14;28.00;99.90
9527;DHT22;4802;51.494;6.770;2023-06-26T13:13:45;28.00;99.90
9527;DHT22;4802;51.494;6.770;2023-06-26T13:16:36;28.20;99.90
9527;DHT22;4802;51.494;6.770;2023-06-26T13:19:24;28.50;99.90
9527;DHT22;4802;51.494;6.770;2023-06-26T13:25:32;28.30;99.90
9527;DHT22;4802;51.494;6.770;2023-06-26T13:28:23;28.50;99.90
9527;DHT22;4802;51.494;6.770;2023-06-26T13:31:12;28.30;99.90
9527;DHT22;4802;51.494;6.770;2023-06-26T13:34:09;28.20;99.90
9527;DHT22;4802;51.494;6.770;2023-06-26T13:37:06;28.10;99.90
9527;DHT22;4802;51.494;6.770;2023-06-26T13:39:49;28.00;99.90
9527;DHT22;4802;51.494;6.770;2023-06-26T13:42:44;27.80;99.90
9527;DHT22;4802;51.494;6.770;2023-06-26T13:45:44;27.80;99.90
9527;DHT22;4802;51.494;6.770;2023-06-26T13:48:28;27.90;99.90
9527;DHT22;4802;51.494;6.770;2023-06-26T13:51:04;27.90;99.90
9527;DHT22;4802;51.494;6.770;2023-06-26T13:53:40;27.80;99.90
9527;DHT22;4802;51.494;6.770;2023-06-26T13:56:39;28.00;99.90
9527;DHT22;4802;51.494;6.770;2023-06-26T13:59:09;28.00;99.90
9527;DHT22;4802;51.494;6.770;2023-06-26T14:02:02;28.10;99.90
9527;DHT22;4802;51.494;6.770;2023-06-26T14:04:47;28.00;99.90
9527;DHT22;4802;51.494;6.770;2023-06-26T14:07:31;28.30;99.90
9527;DHT22;4802;51.494;6.770;2023-06-26T14:10:12;27.70;99.90
9527;DHT22;4802;51.494;6.770;2023-06-26T14:13:09;27.50;99.90
9527;DHT22;4802;51.494;6.770;2023-06-26T14:15:51;27.60;99.90
9527;DHT22;4802;51.494;6.770;2023-06-26T14:21:51;27.60;99.90
9527;DHT22;4802;51.494;6.770;2023-06-26T14:24:22;27.60;99.90
9527;DHT22;4802;51.494;6.770;2023-06-26T14:26:54;27.50;99.90
9527;DHT22;4802;51.494;6.770;2023-06-26T14:29:25;27.30;99.90
9527;DHT22;4802;51.494;6.770;2023-06-26T14:31:55;27.20;99.90
9527;DHT22;4802;51.494;6.770;2023-06-26T14:34:35;27.30;99.90
9527;DHT22;4802;51.494;6.770;2023-06-26T14:37:07;27.30;99.90
9527;DHT22;4802;51.494;6.770;2023-06-26T14:39:37;27.30;99.90
9527;DHT22;4802;51.494;6.770;2023-06-26T14:42:10;27.30;99.90
9527;DHT22;4802;51.494;6.770;2023-06-26T14:44:44;27.30;99.90
9527;DHT22;4802;51.494;6.770;2023-06-26T14:47:23;27.20;99.90
9527;DHT22;4802;51.494;6.770;2023-06-26T14:49:53;27.30;99.90
9527;DHT22;4802;51.494;6.770;2023-06-26T14:52:28;27.10;99.90
9527;DHT22;4802;51.494;6.770;2023-06-26T14:54:57;27.30;99.90
9527;DHT22;4802;51.494;6.770;2023-06-26T14:57:27;27.30;99.90
9527;DHT22;4802;51.494;6.770;2023-06-26T14:59:58;27.50;99.90
9527;DHT22;4802;51.494;6.770;2023-06-26T15:02:29;27.30;99.90
9527;DHT22;4802;51.494;6.770;2023-06-26T15:05:09;27.80;99.90
9527;DHT22;4802;51.494;6.770;2023-06-26T16:19:46;26.00;99.90
9527;DHT22;4802;51.494;6.770;2023-06-26T16:22:35;25.40;99.90
9527;DHT22;4802;51.494;6.770;2023-06-26T16:25:21;25.60;99.90
9527;DHT22;4802;51.494;6.770;2023-06-26T16:28:20;25.60;99.90
9527;DHT22;4802;51.494;6.770;2023-06-26T16:31:27;25.50;99.90
9527;DHT22;4802;51.494;6.770;2023-06-26T16:34:29;25.30;99.90
9527;DHT22;4802;51.494;6.770;2023-06-26T16:37:21;25.10;99.90
9527;DHT22;4802;51.494;6.770;2023-06-26T16:40:06;25.00;99.90
9527;DHT22;4802;51.494;6.770;2023-06-26T16:42:57;24.90;99.90
9527;DHT22;4802;51.494;6.770;2023-06-26T16:45:57;24.50;99.90
9527;DHT22;4802;51.494;6.770;2023-06-26T16:48:54;24.90;99.90
9527;DHT22;4802;51.494;6.770;2023-06-26T16:51:28;24.80;99.90
9527;DHT22;4802;51.494;6.770;2023-06-26T16:54:39;24.90;99.90
9527;DHT22;4802;51.494;6.770;2023-06-26T16:57:32;24.90;99.90
9527;DHT22;4802;51.494;6.770;2023-06-26T17:00:13;24.90;99.90
9527;DHT22;4802;51.494;6.770;2023-06-26T17:02:44;24.80;99.90
9527;DHT22;4802;51.494;6.770;2023-06-26T17:05:17;24.80;99.90
9527;DHT22;4802;51.494;6.770;2023-06-26T17:08:12;24.70;99.90
9527;DHT22;4802;51.494;6.770;2023-06-26T17:15:12;25.30;99.90
9527;DHT22;4802;51.494;6.770;2023-06-26T17:18:10;25.30;99.90
9527;DHT22;4802;51.494;6.770;2023-06-26T17:21:14;25.80;99.90
9527;DHT22;4802;51.494;6.770;2023-06-26T17:24:18;25.70;99.90
9527;DHT22;4802;51.494;6.770;2023-06-26T17:27:21;26.10;99.90
9527;DHT22;4802;51.494;6.770;2023-06-26T19:31:48;22.90;99.90
9527;DHT22;4802;51.494;6.770;2023-06-26T19:34:51;22.60;99.90
9527;DHT22;4802;51.494;6.770;2023-06-26T19:37:44;22.30;99.90
9527;DHT22;4802;51.494;6.770;2023-06-26T19:40:40;23.20;99.90
9527;DHT22;4802;51.494;6.770;2023-06-26T19:43:12;23.40;99.90
9527;DHT22;4802;51.494;6.770;2023-06-26T19:45:55;23.40;99.90
9527;DHT22;4802;51.494;6.770;2023-06-26T19:48:58;23.30;99.90
9527;DHT22;4802;51.494;6.770;2023-06-26T19:51:54;22.90;99.90
9527;DHT22;4802;51.494;6.770;2023-06-26T19:54:25;22.60;99.90
9527;DHT22;4802;51.494;6.770;2023-06-26T19:57:21;22.40;99.90
9527;DHT22;4802;51.494;6.770;2023-06-26T20:00:11;22.30;99.90
9527;DHT22;4802;51.494;6.770;2023-06-26T20:02:44;22.10;99.90
9527;DHT22;4802;51.494;6.770;2023-06-26T20:05:46;22.10;99.90
9527;DHT22;4802;51.494;6.770;2023-06-26T20:08:16;22.10;99.90
9527;DHT22;4802;51.494;6.770;2023-06-26T20:10:45;22.00;99.90
9527;DHT22;4802;51.494;6.770;2023-06-26T20:13:16;21.80;99.90
9527;DHT22;4802;51.494;6.770;2023-06-26T20:15:52;21.90;99.90
9527;DHT22;4802;51.494;6.770;2023-06-26T20:18:23;21.80;99.90
9527;DHT22;4802;51.494;6.770;2023-06-26T20:20:56;21.70;99.90
9527;DHT22;4802;51.494;6.770;2023-06-26T20:23:35;21.60;99.90
9527;DHT22;4802;51.494;6.770;2023-06-26T20:26:08;21.60;99.90
9527;DHT22;4802;51.494;6.770;2023-06-26T20:28:39;21.60;99.90
9527;DHT22;4802;51.494;6.770;2023-06-26T20:31:08;21.60;99.90
9527;DHT22;4802;51.494;6.770;2023-06-26T20:33:38;21.60;99.90
9527;DHT22;4802;51.494;6.770;2023-06-26T20:36:10;21.70;99.90